createdAt,value
2018-07-26T00:01:13.875Z,18.30
2018-07-26T00:03:42.494Z,18.30
2018-07-26T00:06:11.172Z,18.30
2018-07-26T00:08:39.863Z,18.30
2018-07-26T00:11:08.561Z,18.30
2018-07-26T00:13:37.325Z,18.30
2018-07-26T00:16:06.311Z,18.20
2018-07-26T00:18:35.039Z,18.00
2018-07-26T00:21:03.958Z,17.90
2018-07-26T00:26:01.139Z,17.90
2018-07-26T00:28:29.813Z,17.80
2018-07-26T00:33:26.925Z,17.70
2018-07-26T00:35:55.637Z,17.70
2018-07-26T00:38:24.287Z,17.50
2018-07-26T00:40:53.011Z,17.40
2018-07-26T00:43:21.653Z,17.40
2018-07-26T00:45:50.315Z,17.40
2018-07-26T00:48:18.930Z,17.40
2018-07-26T00:50:47.530Z,17.30
2018-07-26T00:53:16.201Z,17.40
2018-07-26T00:55:44.970Z,17.50
2018-07-26T00:58:13.576Z,17.50
2018-07-26T01:00:42.255Z,17.40
2018-07-26T01:03:10.925Z,17.40
2018-07-26T01:05:39.525Z,17.30
2018-07-26T01:08:08.128Z,17.30
2018-07-26T01:10:36.787Z,17.30
2018-07-26T01:13:05.483Z,17.40
2018-07-26T01:15:34.065Z,17.30
2018-07-26T01:18:02.759Z,17.40
2018-07-26T01:20:31.384Z,17.40
2018-07-26T01:25:28.533Z,17.30
2018-07-26T01:30:25.780Z,17.40
2018-07-26T01:32:54.488Z,17.40
2018-07-26T01:35:23.128Z,17.40
2018-07-26T01:37:51.775Z,17.40
2018-07-26T01:43:06.423Z,17.40
2018-07-26T01:45:35.157Z,17.40
2018-07-26T01:48:04.043Z,17.40
2018-07-26T01:50:32.738Z,17.50
2018-07-26T01:53:01.451Z,17.50
2018-07-26T01:55:30.086Z,17.40
2018-07-26T01:57:58.736Z,17.50
2018-07-26T02:00:27.403Z,17.50
2018-07-26T02:02:57.051Z,17.40
2018-07-26T02:05:25.658Z,17.40
2018-07-26T02:07:54.288Z,17.40
2018-07-26T02:10:22.931Z,17.30
2018-07-26T02:12:51.796Z,17.20
2018-07-26T02:17:48.998Z,17.10
2018-07-26T02:20:17.635Z,16.90
2018-07-26T02:25:14.740Z,16.70
2018-07-26T02:27:43.398Z,16.70
2018-07-26T02:35:09.851Z,16.70
2018-07-26T02:37:38.509Z,16.60
2018-07-26T02:40:07.288Z,16.70
2018-07-26T02:42:36.004Z,16.70
2018-07-26T02:45:05.158Z,16.70
2018-07-26T02:47:33.853Z,16.70
2018-07-26T02:50:02.641Z,17.10
2018-07-26T02:52:31.331Z,17.30
2018-07-26T02:55:00.173Z,17.10
2018-07-26T02:57:28.852Z,16.90
2018-07-26T03:02:26.123Z,16.80
2018-07-26T03:04:54.925Z,16.70
2018-07-26T03:07:23.619Z,16.70
2018-07-26T03:09:52.363Z,16.50
2018-07-26T03:12:21.181Z,16.30
2018-07-26T03:14:50.003Z,16.20
2018-07-26T03:17:18.775Z,16.20
2018-07-26T03:19:47.578Z,16.10
2018-07-26T03:22:16.365Z,16.10
2018-07-26T03:24:45.261Z,16.10
2018-07-26T03:27:14.036Z,16.00
2018-07-26T03:29:42.799Z,15.90
2018-07-26T03:32:11.889Z,15.90
2018-07-26T03:34:40.600Z,15.90
2018-07-26T03:37:09.272Z,16.10
2018-07-26T03:39:37.963Z,16.10
2018-07-26T03:42:06.703Z,16.10
2018-07-26T03:44:35.430Z,16.10
2018-07-26T03:47:04.171Z,16.10
2018-07-26T03:49:32.808Z,16.10
2018-07-26T03:52:01.623Z,16.20
2018-07-26T03:54:30.380Z,16.20
2018-07-26T03:57:00.023Z,16.20
2018-07-26T03:59:30.685Z,16.30
2018-07-26T04:04:28.018Z,16.70
2018-07-26T04:06:56.985Z,16.80
2018-07-26T04:09:25.755Z,16.70
2018-07-26T04:11:54.423Z,16.70
2018-07-26T04:14:23.153Z,16.70
2018-07-26T04:16:51.923Z,16.60
2018-07-26T04:19:20.616Z,16.70
2018-07-26T04:21:49.296Z,16.90
2018-07-26T04:24:17.992Z,16.70
2018-07-26T04:26:46.676Z,16.60
2018-07-26T04:29:15.471Z,16.60
2018-07-26T04:31:44.278Z,16.80
2018-07-26T04:34:12.931Z,16.80
2018-07-26T04:36:41.603Z,16.90
2018-07-26T04:39:10.666Z,16.70
2018-07-26T04:41:39.348Z,16.60
2018-07-26T04:44:09.260Z,16.70
2018-07-26T04:46:37.896Z,16.80
2018-07-26T04:49:06.638Z,17.00
2018-07-26T04:51:35.384Z,17.10
2018-07-26T04:54:04.184Z,17.20
2018-07-26T04:56:32.912Z,17.50
2018-07-26T04:59:01.712Z,17.80
2018-07-26T05:01:30.496Z,17.90
2018-07-26T05:03:59.310Z,18.10
2018-07-26T05:06:28.064Z,18.40
2018-07-26T05:11:25.368Z,19.00
2018-07-26T05:13:54.054Z,19.40
2018-07-26T05:16:22.811Z,19.30
2018-07-26T05:18:51.575Z,19.30
2018-07-26T05:21:20.861Z,19.70
2018-07-26T05:23:49.641Z,19.80
2018-07-26T05:26:18.431Z,20.20
2018-07-26T05:28:47.136Z,20.20
2018-07-26T05:31:15.879Z,20.20
2018-07-26T05:33:44.584Z,20.50
2018-07-26T05:36:13.238Z,20.50
2018-07-26T05:38:41.921Z,20.80
2018-07-26T05:41:10.722Z,20.80
2018-07-26T05:43:39.591Z,21.10
2018-07-26T05:46:08.503Z,21.40
2018-07-26T05:48:37.293Z,21.70
2018-07-26T05:51:06.024Z,21.90
2018-07-26T05:53:34.794Z,22.00
2018-07-26T05:56:03.603Z,21.90
2018-07-26T06:01:00.886Z,22.40
2018-07-26T06:03:29.691Z,22.70
2018-07-26T06:05:58.444Z,22.70
2018-07-26T06:08:27.116Z,22.70
2018-07-26T06:10:55.851Z,22.70
2018-07-26T06:13:24.664Z,22.60
2018-07-26T06:15:54.587Z,23.00
2018-07-26T06:18:24.356Z,23.20
2018-07-26T06:20:53.074Z,23.20
2018-07-26T06:23:21.791Z,23.10
2018-07-26T06:25:50.578Z,23.10
2018-07-26T06:28:19.448Z,23.00
2018-07-26T06:30:48.816Z,23.00
2018-07-26T06:33:17.611Z,23.20
2018-07-26T06:35:46.540Z,23.20
2018-07-26T06:38:15.274Z,23.50
2018-07-26T06:40:44.539Z,23.80
2018-07-26T06:43:13.379Z,24.20
2018-07-26T06:45:42.226Z,24.50
2018-07-26T06:50:39.876Z,24.60
2018-07-26T06:53:08.609Z,24.80
2018-07-26T06:55:37.344Z,25.10
2018-07-26T06:58:06.116Z,25.40
2018-07-26T07:00:34.883Z,25.70
2018-07-26T07:03:03.657Z,25.90
2018-07-26T07:05:32.434Z,25.80
2018-07-26T07:10:29.736Z,26.60
2018-07-26T07:12:58.839Z,26.60
2018-07-26T07:15:27.562Z,27.00
2018-07-26T07:17:56.329Z,27.30
2018-07-26T07:20:25.110Z,27.40
2018-07-26T07:22:53.904Z,27.50
2018-07-26T07:25:22.666Z,27.50
2018-07-26T07:27:51.483Z,28.00
2018-07-26T07:30:20.159Z,28.10
2018-07-26T07:32:48.872Z,28.40
2018-07-26T07:35:17.634Z,28.40
2018-07-26T07:37:46.489Z,28.50
2018-07-26T07:40:15.269Z,28.80
2018-07-26T07:42:44.052Z,28.50
2018-07-26T07:45:12.842Z,28.90
2018-07-26T07:47:41.680Z,29.20
2018-07-26T07:50:10.545Z,29.10
2018-07-26T07:52:39.247Z,29.10
2018-07-26T07:55:08.161Z,29.10
2018-07-26T07:57:36.976Z,29.50
2018-07-26T08:00:09.054Z,29.40
2018-07-26T08:02:38.094Z,29.70
2018-07-26T08:05:07.053Z,29.60
2018-07-26T08:07:36.048Z,29.30
2018-07-26T08:10:06.764Z,29.80
2018-07-26T08:12:35.553Z,30.30
2018-07-26T08:15:05.517Z,30.20
2018-07-26T08:17:34.702Z,30.60
2018-07-26T08:20:03.498Z,30.60
2018-07-26T08:22:32.263Z,30.70
2018-07-26T08:25:00.947Z,30.80
2018-07-26T08:27:29.758Z,31.20
2018-07-26T08:29:58.548Z,31.30
2018-07-26T08:32:27.347Z,31.30
2018-07-26T08:34:56.595Z,31.60
2018-07-26T08:37:26.411Z,31.70
2018-07-26T08:39:55.966Z,31.70
2018-07-26T08:42:24.916Z,31.80
2018-07-26T08:44:53.756Z,31.70
2018-07-26T08:47:22.656Z,32.00
2018-07-26T08:49:51.408Z,32.50
2018-07-26T08:52:20.968Z,32.00
2018-07-26T08:54:49.720Z,32.30
2018-07-26T08:57:18.538Z,32.50
2018-07-26T09:02:15.822Z,33.30
2018-07-26T09:04:44.520Z,33.30
2018-07-26T09:07:13.308Z,33.50
2018-07-26T09:09:42.189Z,33.40
2018-07-26T09:12:11.108Z,32.70
2018-07-26T09:14:39.799Z,32.50
2018-07-26T09:17:08.829Z,32.50
2018-07-26T09:19:38.381Z,32.50
2018-07-26T09:22:07.441Z,32.40
2018-07-26T09:24:40.108Z,32.20
2018-07-26T09:27:10.546Z,32.10
2018-07-26T09:29:39.481Z,32.40
2018-07-26T09:32:08.773Z,32.40
2018-07-26T09:34:37.726Z,32.70
2018-07-26T09:37:06.679Z,32.80
2018-07-26T09:39:35.553Z,33.40
2018-07-26T09:42:04.266Z,33.70
2018-07-26T09:44:33.162Z,34.10
2018-07-26T09:47:01.870Z,34.30
2018-07-26T09:49:30.583Z,33.80
2018-07-26T09:51:59.332Z,33.70
2018-07-26T09:54:28.127Z,33.20
2018-07-26T09:56:56.911Z,33.10
2018-07-26T10:01:54.186Z,32.70
2018-07-26T10:04:22.840Z,32.80
2018-07-26T10:06:51.652Z,32.50
2018-07-26T10:09:20.339Z,32.40
2018-07-26T10:14:17.571Z,33.90
2018-07-26T10:16:46.351Z,34.10
2018-07-26T10:19:15.076Z,34.30
2018-07-26T10:21:43.722Z,33.90
2018-07-26T10:24:12.477Z,33.90
2018-07-26T10:26:41.351Z,34.40
2018-07-26T10:29:10.175Z,34.60
2018-07-26T10:31:38.894Z,34.70
2018-07-26T10:34:07.613Z,34.50
2018-07-26T10:39:08.268Z,34.70
2018-07-26T10:41:36.959Z,35.60
2018-07-26T10:44:05.746Z,35.90
2018-07-26T10:46:35.199Z,35.50
2018-07-26T10:49:04.212Z,35.40
2018-07-26T10:51:33.221Z,35.20
2018-07-26T10:56:30.536Z,34.40
2018-07-26T10:58:59.213Z,34.30
2018-07-26T11:01:28.081Z,34.30
2018-07-26T11:03:56.744Z,34.30
2018-07-26T11:06:25.436Z,34.30
2018-07-26T11:08:54.146Z,34.10
2018-07-26T11:11:22.878Z,34.10
2018-07-26T11:13:51.633Z,34.40
2018-07-26T11:16:20.470Z,34.70
2018-07-26T11:18:49.178Z,34.80
2018-07-26T11:21:17.854Z,34.70
2018-07-26T11:23:47.567Z,34.70
2018-07-26T11:26:16.916Z,35.00
2018-07-26T11:28:45.766Z,35.50
2018-07-26T11:31:14.465Z,35.90
2018-07-26T11:33:43.201Z,36.60
2018-07-26T11:36:11.918Z,36.60
2018-07-26T11:38:40.691Z,36.80
2018-07-26T11:43:38.308Z,37.80
2018-07-26T11:46:07.120Z,38.10
2018-07-26T11:48:35.864Z,38.40
2018-07-26T11:51:04.780Z,38.50
2018-07-26T11:53:33.611Z,38.70
2018-07-26T11:58:31.158Z,37.70
2018-07-26T12:01:00.040Z,38.00
2018-07-26T12:03:28.878Z,38.30
2018-07-26T12:05:57.687Z,38.60
2018-07-26T12:08:26.516Z,38.70
2018-07-26T12:10:55.331Z,38.80
2018-07-26T12:13:24.214Z,38.10
2018-07-26T12:15:53.084Z,37.50
2018-07-26T12:18:22.842Z,37.60
2018-07-26T12:23:20.143Z,37.40
2018-07-26T12:25:48.911Z,38.50
2018-07-26T12:28:17.668Z,39.00
2018-07-26T12:30:46.393Z,39.10
2018-07-26T12:33:15.090Z,39.10
2018-07-26T12:35:43.975Z,39.40
2018-07-26T12:38:12.733Z,39.40
2018-07-26T12:43:10.083Z,38.30
2018-07-26T12:45:38.939Z,38.50
2018-07-26T12:48:08.110Z,39.10
2018-07-26T12:50:37.518Z,39.40
2018-07-26T12:53:06.434Z,38.90
2018-07-26T12:55:35.285Z,39.10
2018-07-26T12:58:04.053Z,39.40
2018-07-26T13:00:34.988Z,39.40
2018-07-26T13:03:04.604Z,39.40
2018-07-26T13:08:03.349Z,39.80
2018-07-26T13:10:32.194Z,39.90
2018-07-26T13:13:01.029Z,38.60
2018-07-26T13:15:30.408Z,37.50
2018-07-26T13:17:59.587Z,36.90
2018-07-26T13:22:57.033Z,36.20
2018-07-26T13:28:01.420Z,36.30
2018-07-26T13:33:01.739Z,38.50
2018-07-26T13:35:30.512Z,39.00
2018-07-26T13:37:59.439Z,38.70
2018-07-26T13:40:28.204Z,37.80
2018-07-26T13:42:57.591Z,37.50
2018-07-26T13:45:26.285Z,37.10
2018-07-26T13:50:23.730Z,37.10
2018-07-26T13:52:52.574Z,37.70
2018-07-26T13:55:21.905Z,38.10
2018-07-26T13:57:50.605Z,38.70
2018-07-26T14:00:19.974Z,39.20
2018-07-26T14:02:48.771Z,39.20
2018-07-26T14:05:17.580Z,39.00
2018-07-26T14:07:46.253Z,39.30
2018-07-26T14:10:15.031Z,38.80
2018-07-26T14:12:43.779Z,38.20
2018-07-26T14:17:41.036Z,39.00
2018-07-26T14:20:11.680Z,39.10
2018-07-26T14:22:40.959Z,39.10
2018-07-26T14:25:09.855Z,39.00
2018-07-26T14:27:38.680Z,38.90
2018-07-26T14:30:08.640Z,38.70
2018-07-26T14:32:37.408Z,38.20
2018-07-26T14:35:06.381Z,38.00
2018-07-26T14:37:35.160Z,38.40
2018-07-26T14:40:06.002Z,38.30
2018-07-26T14:42:34.854Z,38.60
2018-07-26T14:45:04.384Z,38.70
2018-07-26T14:47:33.075Z,38.70
2018-07-26T14:50:01.919Z,38.70
2018-07-26T14:52:30.819Z,38.40
2018-07-26T14:54:59.834Z,37.90
2018-07-26T14:57:28.782Z,37.80
2018-07-26T14:59:57.927Z,38.00
2018-07-26T15:04:55.276Z,37.70
2018-07-26T15:07:24.449Z,37.70
2018-07-26T15:09:54.002Z,37.90
2018-07-26T15:12:22.657Z,37.60
2018-07-26T15:14:51.363Z,37.40
2018-07-26T15:17:20.236Z,37.40
2018-07-26T15:19:48.969Z,37.50
2018-07-26T15:22:17.760Z,37.70
2018-07-26T15:24:46.456Z,37.50
2018-07-26T15:27:15.178Z,38.10
2018-07-26T15:29:44.018Z,38.00
2018-07-26T15:32:13.176Z,38.30
2018-07-26T15:37:10.401Z,37.70
2018-07-26T15:39:39.094Z,36.80
2018-07-26T15:42:08.402Z,36.10
2018-07-26T15:44:37.197Z,35.30
2018-07-26T15:47:05.880Z,35.00
2018-07-26T15:49:34.519Z,34.70
2018-07-26T15:52:03.595Z,34.50
2018-07-26T15:54:32.356Z,34.10
2018-07-26T15:57:01.021Z,33.80
2018-07-26T15:59:29.678Z,33.50
2018-07-26T16:01:59.866Z,33.10
2018-07-26T16:04:28.581Z,32.90
2018-07-26T16:06:58.712Z,32.70
2018-07-26T16:09:27.415Z,32.60
2018-07-26T16:11:56.184Z,32.30
2018-07-26T16:14:24.984Z,32.00
2018-07-26T16:16:53.671Z,31.70
2018-07-26T16:19:22.361Z,31.30
2018-07-26T16:21:51.036Z,30.70
2018-07-26T16:24:19.736Z,30.30
2018-07-26T16:26:48.515Z,30.00
2018-07-26T16:29:17.356Z,29.80
2018-07-26T16:34:14.566Z,29.60
2018-07-26T16:36:43.178Z,29.10
2018-07-26T16:39:13.673Z,28.40
2018-07-26T16:41:42.391Z,27.90
2018-07-26T16:44:11.275Z,27.10
2018-07-26T16:46:40.081Z,26.70
2018-07-26T16:49:08.908Z,26.40
2018-07-26T16:51:37.698Z,26.10
2018-07-26T16:54:06.482Z,26.10
2018-07-26T16:56:35.278Z,25.90
2018-07-26T16:59:04.202Z,26.10
2018-07-26T17:01:33.126Z,26.20
2018-07-26T17:04:01.929Z,26.40
2018-07-26T17:06:30.586Z,26.40
2018-07-26T17:08:59.276Z,26.40
2018-07-26T17:11:28.004Z,26.40
2018-07-26T17:13:57.600Z,26.60
2018-07-26T17:16:26.296Z,26.80
2018-07-26T17:18:55.076Z,26.90
2018-07-26T17:21:23.776Z,26.90
2018-07-26T17:23:52.497Z,27.00
2018-07-26T17:26:21.837Z,27.00
2018-07-26T17:28:50.715Z,26.90
2018-07-26T17:31:19.316Z,26.80
2018-07-26T17:33:48.151Z,26.80
2018-07-26T17:36:16.859Z,26.70
2018-07-26T17:38:45.618Z,26.70
2018-07-26T17:41:14.303Z,26.70
2018-07-26T17:43:43.035Z,26.50
2018-07-26T17:46:11.885Z,26.50
2018-07-26T17:48:40.581Z,26.80
2018-07-26T17:51:09.296Z,26.60
2018-07-26T17:56:06.466Z,25.90
2018-07-26T18:03:32.797Z,25.30
2018-07-26T18:06:01.613Z,25.00
2018-07-26T18:10:59.741Z,24.80
2018-07-26T18:13:28.453Z,24.90
2018-07-26T18:15:57.081Z,24.50
2018-07-26T18:18:26.333Z,24.10
2018-07-26T18:23:23.748Z,23.60
2018-07-26T18:28:20.933Z,23.20
2018-07-26T18:30:49.701Z,23.20
2018-07-26T18:35:46.846Z,23.30
2018-07-26T18:38:15.560Z,23.30
2018-07-26T18:40:44.303Z,23.40
2018-07-26T18:43:12.945Z,23.40
2018-07-26T18:45:41.583Z,23.40
2018-07-26T18:48:10.286Z,23.50
2018-07-26T18:50:38.938Z,23.40
2018-07-26T18:53:07.686Z,23.20
2018-07-26T18:55:36.361Z,23.40
2018-07-26T18:58:05.124Z,23.70
2018-07-26T19:00:33.774Z,23.80
2018-07-26T19:03:02.570Z,23.90
2018-07-26T19:05:31.294Z,23.80
2018-07-26T19:07:59.928Z,23.70
2018-07-26T19:10:28.613Z,23.50
2018-07-26T19:12:57.353Z,23.30
2018-07-26T19:15:26.075Z,23.30
2018-07-26T19:17:54.808Z,23.30
2018-07-26T19:20:23.555Z,23.30
2018-07-26T19:22:53.421Z,23.30
2018-07-26T19:25:22.943Z,23.30
2018-07-26T19:27:51.705Z,23.20
2018-07-26T19:30:20.438Z,23.10
2018-07-26T19:32:49.127Z,23.10
2018-07-26T19:35:17.870Z,23.00
2018-07-26T19:37:46.581Z,22.90
2018-07-26T19:40:15.373Z,22.90
2018-07-26T19:42:44.191Z,22.90
2018-07-26T19:45:12.898Z,22.80
2018-07-26T19:47:41.596Z,22.70
2018-07-26T19:50:10.288Z,22.70
2018-07-26T19:52:38.963Z,22.70
2018-07-26T19:55:10.464Z,22.60
2018-07-26T19:57:39.211Z,22.80
2018-07-26T20:00:08.838Z,22.80
2018-07-26T20:02:38.256Z,22.90
2018-07-26T20:05:08.569Z,22.90
2018-07-26T20:07:37.459Z,22.90
2018-07-26T20:10:09.206Z,22.90
2018-07-26T20:15:07.173Z,22.80
2018-07-26T20:17:36.035Z,22.80
2018-07-26T20:20:07.630Z,22.70
2018-07-26T20:22:36.435Z,22.50
2018-07-26T20:25:05.451Z,22.40
2018-07-26T20:27:34.391Z,22.30
2018-07-26T20:32:32.553Z,22.40
2018-07-26T20:35:01.253Z,22.30
2018-07-26T20:37:30.050Z,22.20
2018-07-26T20:39:59.200Z,22.20
2018-07-26T20:42:28.091Z,22.10
2018-07-26T20:44:56.841Z,22.10
2018-07-26T20:47:25.558Z,22.10
2018-07-26T20:49:54.216Z,22.00
2018-07-26T20:54:51.410Z,22.10
2018-07-26T20:57:20.156Z,22.10
2018-07-26T20:59:48.798Z,22.00
2018-07-26T21:02:17.909Z,22.00
2018-07-26T21:04:46.576Z,21.90
2018-07-26T21:07:16.019Z,21.80
2018-07-26T21:09:44.706Z,21.60
2018-07-26T21:12:13.966Z,21.40
2018-07-26T21:14:43.345Z,21.30
2018-07-26T21:17:12.019Z,21.50
2018-07-26T21:19:40.728Z,21.60
2018-07-26T21:22:09.437Z,21.80
2018-07-26T21:24:38.583Z,21.80
2018-07-26T21:27:07.358Z,21.70
2018-07-26T21:32:06.033Z,21.60
2018-07-26T21:34:34.728Z,21.40
2018-07-26T21:37:04.291Z,21.10
2018-07-26T21:39:33.282Z,20.80
2018-07-26T21:42:02.861Z,20.50
2018-07-26T21:44:31.701Z,20.20
2018-07-26T21:47:00.278Z,20.10
2018-07-26T21:49:29.154Z,20.10
2018-07-26T21:51:57.921Z,20.10
2018-07-26T21:54:26.705Z,20.10
2018-07-26T21:56:56.535Z,20.10
2018-07-26T21:59:26.452Z,20.00
2018-07-26T22:01:55.279Z,20.10
2018-07-26T22:04:24.027Z,20.20
2018-07-26T22:06:52.883Z,20.40
2018-07-26T22:11:51.151Z,20.30
2018-07-26T22:14:20.874Z,20.30
2018-07-26T22:16:49.599Z,20.30
2018-07-26T22:19:18.344Z,20.30
2018-07-26T22:21:47.167Z,20.20
2018-07-26T22:24:15.937Z,20.20
2018-07-26T22:29:13.395Z,20.00
2018-07-26T22:31:43.734Z,19.90
2018-07-26T22:36:40.959Z,19.80
2018-07-26T22:39:10.730Z,19.80
2018-07-26T22:41:39.656Z,19.70
2018-07-26T22:44:08.447Z,19.60
2018-07-26T22:46:37.903Z,19.40
2018-07-26T22:49:07.371Z,19.40
2018-07-26T22:51:36.266Z,19.30
2018-07-26T22:54:05.323Z,19.30
2018-07-26T22:56:34.253Z,19.30
2018-07-26T22:59:03.334Z,19.30
2018-07-26T23:01:32.008Z,19.30
2018-07-26T23:04:00.656Z,19.30
2018-07-26T23:06:29.395Z,19.30
2018-07-26T23:08:58.401Z,19.30
2018-07-26T23:11:27.206Z,19.50
2018-07-26T23:13:55.958Z,19.60
2018-07-26T23:16:24.723Z,19.70
2018-07-26T23:18:53.532Z,19.70
2018-07-26T23:21:22.288Z,19.80
2018-07-26T23:23:50.990Z,19.70
2018-07-26T23:26:19.728Z,19.60
2018-07-26T23:28:48.486Z,19.50
2018-07-26T23:31:17.183Z,19.30
2018-07-26T23:33:45.886Z,19.20
2018-07-26T23:36:14.590Z,18.90
2018-07-26T23:38:43.248Z,18.70
2018-07-26T23:41:11.971Z,18.60
2018-07-26T23:43:40.688Z,18.50
2018-07-26T23:46:09.371Z,18.30
2018-07-26T23:48:38.063Z,18.20
2018-07-26T23:51:06.888Z,18.10
